Timeline UpdatesTrip UpdatesNews PostsPvt PostsTravel TipsAdmin PostsConv PostsFollowed PostsChat RequestsBlog PostsPNR Posts

Disclaimer
Search
 
 
Sun Sep 21, 2014 19:38:02 ISTHomeTrainsΣChainsAtlasPNRForumGalleryNewsFAQTripsMembersLoginFeedback
No Recent News for this Train
Other Trains in the News **new
Latest...
.
Tue Sep 02, 2014 (11:54AM)
⇐ Return Journey: Train# 18478

18477/Kalinga Utkal Express

Time-Table HAS CHANGED.
Sep 02 (11:54AM)
Change Departure Station:
Change Arrival Station:
Post a Train Travel TipPost a Train Travel Tip **new
Post a Comment/Question/Picture/VideoPost a Comment/Question/Picture/Video
Pantry/Catering
✓ Pantry Car Avbl
✓ Catering Avbl
RSA - Rake Sharing
Rake/Coach Composition
Coach Composition:ENG-SLR-GS-GS-A1-B2-B1-S12-S11-S10-PC-S9-S8-S7-S6-S5-S4-S3-S2-S1-GS-SLR. By DJ 132 Entry# 701081
Loco
PURI-NZM: TKD WAP-7 NZM-HW: LDH WDM-3A
News    PNR    Forum    Time-Table    Availability    Fare Chart    Map    Arr/Dep History    Trips    Gallery    ΣChains    X/O    Timeline    
Travel Time: 29h 10m    38 halts    Distance: 1387 km    Avg Speed: 47 km/hr
Type: Mail/Express
Zone: ECoR/East Coast
Departs @ 15:45
Platform# 2
SMTWTFS
Bilaspur Junction/BSP 
Arrives @ 20:55 +1 night
Platform# 2
SMTWTFS
Haridwar Junction/HW 

38 halts. 184 intermediate Stations between Bilaspur Junction and Haridwar Junction

Show ALL intermediate Stations  Show Old Time-Table

#CodeStation NameX/OArrivesAvgDepartsAvgHaltPFDay#KmSpeedElevZoneAddress
1PURIPuri (5)  -20:55-51-984.24912mECoRPuri, Odisha
2SILSakhi Gopal (3)  21:15-21:16-1m--1-967.84810mECoRPuri, Odisha
3KURKhurda Road Junction (7)X  21:50-21:55-5m--1-940.35725mECoRKhordha, Odisha
4BBSBhubaneswar (4)  22:20 22:15-22:25 22:20-5m41-921.44840mECoRBhubaneshwar, Odisha
5CTCCuttack Junction (5)  22:50 22:55-22:55 23:00-5m11-893.58628mECoRCuttack, Odisha
6JJKRJajpur Keonjhar Road (4)  23:51 23:50-23:52-1 2m--1-821.54036mECoRJajpur, Odisha
7BHCBhadrak (4)X  00:58-01:00-2m--2-777.98723mECoRBhadrak, Odisha
8SOROSoroX  01:21 01:20-01:22-1 2m--2-748.97214mSERSoro, Odisha
9BLSBalasore (4)X  01:50-01:55-5m--2-715.47319mSERBalasore, Odisha
10BTSBasta (3)X  02:19 02:18-02:20-1 2m--2-687.47316mSERBasta, Odisha
11JERJaleswar (4)X  02:37 02:36-02:38-1 2m--2-668.08413mSERJaleswar, Odisha
12HIJHijli (2)  03:25 03:24-03:26-1 2m--2-603.25048mSERdist - paschim medinipur, West Bengal
13CKUChakulia (4)  04:47-04:48-1m--2-535.483126mSERChakulia, Jharkhand
14GTSGhatsila (3)X  05:11 05:10-05:12-1 2m--2-504.845103mSEREast Singhbhum, Jharkhand
15TATATatanagar Junction (5)  06:05 06:00-06:10-5 10m32-468.760164mSER91-657-2423026, Jharkhand
16SINISini Junction (3)X  06:37-06:38 06:39-1 2m--2-441.754182mSERNational Highway 33, Jharkhand
17RKSNRajkharsawan Junction (3)  06:54 06:56-06:55 06:57-1m--2-426.552189mSERSaraikela Kharswan District, Jharkhand
18CKPChakradharpur (3)X  07:20-07:30-10m--2-406.484235mSERChakradharpur (West Singhbhum), Jharkhand
19GOLGoilkera (2)  07:54-07:55-1m--2-372.655333mSERGoilkera, Jharkhand
20MOUManoharpur  08:25-08:26-1m--2-345.170228mSERManoharpur, Jharkhand
21BZRBisra  08:50 08:48-08:51 08:49-1m--2-319.451224mSERSundargarh, Odisha
22BNDMBondamunda (2)  08:55 08:58-08:56 08:59-1m--2-311.924213mSERRourkela, Odisha
23ROURourkela Junction (5)X  09:15-09:30-15m12-305.466198mSERRourkela, Odisha
24GPRaj Gangpur (3)  09:57-09:58-1m12-275.574237mSERRaj Ganpur, Odisha
25BMBBamra (3)X  10:26-10:27-1m--2-240.935259mSERBamra PH : 06642-229268, Odisha
26JSGJharsuguda Junction (5)X  11:30-11:40-10m--2-204.464236mSERJharsuguda, Odisha
27BRJNBrajrajnagarX  11:49 11:51-11:50 11:53-1 2m--2-192.767212mSECRBrajrajnagar, Odisha
28BPHBelpaharX  11:59 12:01-12:00 12:03-1 2m--2-183.883 SECRBelpahar, Odisha
29RIGRaigarh (3)X  12:36 12:40-12:41 12:45-5m22-132.878220mSECRRaigarh, Chhattisgarh
30KHSKharsia  13:04 13:11-13:05 13:13-1 2m--2-98.871 SECRNational Highway 200, Chhattisgarh
31SKTSakti (4)  13:18 13:26-13:19 13:28-1 2m--2-83.474237mSECRJanjgir-Champa, Chhattisgarh
32BUABaradwar  13:31 13:40-13:32 13:42-1 2m--2-68.552 SECRJanjgir-Champa, Chhattisgarh
33CPHChampa Junction (3)  13:49 14:00-13:54 14:05-5m22-53.059264mSECRNational Highway 200 (07819-245767), Chhattisgarh
34NIANaila  14:04 14:16-14:05 14:18-1 2m--2-42.275273mSECRJanjgir, Chhattisgarh
35AKTAkaltara (4)  14:18 14:30-14:19 14:32-1 2m--2-27.228284mSECRDist. Janjgir Champa, Chhattisgarh
36BSPBilaspur Junction (8)»  15:10 15:30-15:25 15:45-15m220.080271mSECRBilaspur, Chhattisgarh
37KGBKargi Road  15:57 16:09-15:58 16:11-1 2m--232.056327mSECRBilaspur, Chhattisgarh
38BIGBelgahna  16:18 16:28-16:19 16:30-1 2m--247.846327mSECRBilaspur, Chhattisgarh
39PNDPendra Road  17:25 17:40-17:30 17:45-5m92101.561620mSECRBilaspur district, Chhattisgarh
40APRAnuppur Junction (4)X  18:20 18:35-18:25 18:40-5m--2152.785487mSECRAnuppur, Madhya Pradesh
41AALAmlaiX  18:35 18:49-18:36 18:51-1 2m--2165.458495mSECRAnuppur, Madhya Pradesh
42BUHBurhar  18:46 19:00-18:47 19:02-1 2m--2174.135494mSECRBurhar, Madhya Pradesh
43SDLShahdolX  19:25 19:35-19:30 19:40-5m--2193.666466mSECR, Madhya Pradesh
44BRSBirsinghpur  20:05 20:14-20:06 20:16-1 2m--2231.054461mSECRPali, Madhya Pradesh
45NRZBNowrozabadX  20:15 20:24-20:16 20:26-1 2m--2238.252458mSECRNational Highway 78, Madhya Pradesh
46UMRUmaria (3)  20:45 20:52-20:50 20:57-5m22260.854469mSECRUmaria, Madhya Pradesh
47CHDChandia Road (1)X  21:09 21:18-21:10 21:20-1 2m12279.825406mSECRNational Highway 78, Madhya Pradesh
48KMZKatni Murwara  22:55-23:10-15m--2319.670385mWCRMP 483504 ?, Madhya Pradesh
49DMODamoh (2)X  00:43-00:45-2m--3428.875365mWCRDamoh, Madhya Pradesh
50PHAPatharia  01:05 01:06-01:07 01:08-2m--3454.962382mWCRState Highway 14, Madhya Pradesh
51SGOSaugor (2)X  01:57-02:00-3m--3505.855519mWCRMP 470001Madhya pradesh, Madhya Pradesh
52KYEKhurai (5)XO  02:58-03:00-2m--3558.723439mWCRKhurai, Madhya Pradesh
53MAKRMalkheri Junction (2)  04:05 03:45-04:07 03:47-2m--3575.956421mWCRGuna, Madhya Pradesh
54LARLalitpur (3)X  05:09 04:55-05:10 04:57-1 2m33639.0114373mNCRLalitpur, Uttar Pradesh
55TBTTalbahat (4)X  05:31 05:18-05:33 05:20-2m33678.965314mNCRKhaniyadhana Station Rd, Madhya Pradesh
56BABBabina (3)X  05:54 05:43-05:55 05:45-1 2m13703.834285mNCRBabina, Uttar Pradesh
57JHSJhansi Junction (7)  06:35 06:30-06:43 06:40-8 10m43729.475259mNCRJhansi, Uttar Pradesh
58DAADatia (2)  07:06 07:00-07:07 07:02-1 2m--3754.476264mNCRDatia, Madhya Pradesh
59DBADabra (3)  07:29 07:26-07:30 07:28-1 2m13784.879 NCRDabra(District-Gwalior), Madhya Pradesh
60GWLGwalior Junction (4)  08:35 08:00-08:40 08:05-5m23827.134214mNCRGwalior, Madhya Pradesh
61MRAMorena (3)  09:08 09:13-09:09 09:15-1 2m23865.681176mNCRMorena, Madhya Pradesh
62DHODholpur Junction (3)X  09:33 09:35-09:34 09:37-1 2m13892.546177mNCRDholpur, Rajasthan
63AGCAgra Cantt. (6)X  10:45-10:53-8m33945.117174mNCRAgra, Uttar Pradesh
64RKMRaja Ki Mandi (4)  11:03 11:07-11:04 11:09-1 2m13949.169170mNCRAgra, Uttar Pradesh
65MTJMathura Junction (10)X  11:47 11:52-11:52 11:57-5m23998.864179mNCRMathura, Uttar Pradesh
66FDBFaridabad (4)X  13:30 13:43-13:31 13:45-1 2m231111.923206mNRold Faridabad, Haryana
67NZMDelhi Hazrat Nizamuddin (7)XOO14:05 14:40-14:35 15:10-30m131132.737209mNRNew Delhi 110013, Delhi NCT
68GZBGhaziabad Junction (6)  15:11 15:48-15:13 15:50-2m131156.145217mNRGhaziabad, Uttar Pradesh
69MTCMeerut City Junction (6)X  15:55 16:53-16:00 16:56-5 3m131203.437229mNRMeerut, Uttar Pradesh
70MUTMeerut Cantt. (2) new halt!!  17:03-17:05-2m--31207.772230mNRMeerut, Uttar Pradesh
71MOZMuzaffarnagar (3)  16:52 17:48-16:53 17:50-1 2m131258.945247mNRMuzaffarNagar, Uttar Pradesh
72DBDDeoband (2)  18:11 18:22-18:12 18:24-1 2m131283.052258mNRSaharanpur, Uttar Pradesh
73TPZTapri Junction (2)  19:01 18:56-19:02 18:58-1 2m231310.660274mNRTapri -Saharanpur, Uttar Pradesh
74RKRoorkee (3)X  19:37 19:30-19:38 19:35-1 5m331342.734264mNRRoorkee - 247667, Uttarakhand
75HWHaridwar Junction (9)•  20:30 20:55--231387.4-294mNRHaridwar, Uttarakhand
Scroll to Top
Scroll to Bottom